Phoenix, AZ (85062)

10:59 PM MST on April 27, 2015 (GMT -0700)
Cambridge Ave. | | Change Station
CLOSE
Current Station
Personal Weather Station
Location: Phoenix, AZ
Elevation: 1270 ft
Nearby Weather Stations

Elev 1270 ft 33.48 °N, 111.96 °W | Updated 15 minutes ago

Partly Cloudy
Partly Cloudy
67.8 °F
Feels Like 67.8 °F
N
0.0
Wind Variable Wind from South

Today
High -- | Low -- °F
--% Chance of Precip.
Yesterday
High -- | Low -- °F
Precip. -- in
5:43 AM 7:07 PM
Waxing Gibbous, 71% visible
Pressure 29.86 in
Visibility 10.0 miles
Clouds Few 8500 ft
Dew Point 46 °F
Humidity 45%
Rainfall 0.00 in
Snow Depth Not available.
UV 0 out of 12
Pollen 7.20 out of 12
Air Quality Not available.
Flu Activity Local Activity
METAR KPHX 280551Z 14004KT 10SM FEW085 24/06 A2990 RMK AO2 SLP109 T02440056 10300 20244 51017

More Conditions Fewer Conditions

Pressure 29.86 in
Visibility 10.0 miles
Clouds Few 8500 ft
Dew Point 46 °F
Humidity 45%
Rainfall 0.00 in
Snow Depth Not available.
UV 0 out of 12
Pollen 7.20 out of 12
Air Quality Not available.
Flu Activity Local Activity
METAR KPHX 280551Z 14004KT 10SM FEW085 24/06 A2990 RMK AO2 SLP109 T02440056 10300 20244 51017

More Conditions Fewer Conditions

10-Day Weather Forecast

Almanac

Astronomy

Apr. 27, 2015 Rise Set
Actual Time
Civil Twilight
Nautical Twilight
Astronomical Twilight
Moon
Length of Visible Light
Length of Day
Tomorrow will be .
, % of the Moon is Illuminated

Today's Extremes

State Highs State Lows

Community

WunderPhotos

Upload Photos

1,817,586 photos uploaded!

WunderBlogs® & News

Nearby

Air Quality

  Air Quality AQ Index Pollutant
Not available.

Snow Depth

Station Depth Elevation

Earthquake Activity

City Distance Mag. Time & Date
Minimum magnitude displayed is 2.5.

Coastal Water Temperatures

Place Temperature

Stations

Nearby Weather Stations

Station Location Temp. Windchill Dew Point Humidity Wind Precip. Elev Updated Type